KFSI/FSI METAR and TAF weather

Enter ICAO airport designator
Station Type Date Time Source
KFSI METAR 2021/09/23 23:56 UTC NOAA

KFSI 232356Z AUTO 15007KT 10SM CLR 27/06 A3000 RMK AO2 SLP154 T02660055 10302 20266 55004


Station Type Date Time Source
KFSI Decoded METAR 2021/09/23 23:56 UTC NOAA

Fort Sill, OK, United States (KFSI) 34-36N 098-24W 360M
Sep 23, 2021 - 07:56 PM EDT / 2021.09.23 2356 UTC
Wind: from the SSE (150 degrees) at 8 MPH (7 KT):0
Visibility: 10 mile(s):0
Sky conditions: clear
Temperature: 79.9 F (26.6 C)
Dew Point: 41.9 F (5.5 C)
Relative Humidity: 25%
Pressure (altimeter): 30 in. Hg (1015 hPa)
Pressure tendency: 0.01 inches (0.4 hPa) lower than three hours ago
ob: KFSI 232356Z AUTO 15007KT 10SM CLR 27/06 A3000 RMK AO2 SLP154 T02660055 10302 20266 55004
cycle: 0

Station Type Date Time Source
KFSI TAF 2020/11/03 14:12 UTC NOAA

TAF KFSI 031400Z 0314/0420 19009KT 9999 SKC QNH3019INS TX19/0320Z TN04/0410Z

Example: see airport list